Check out our new PWSWeather beta!
PWSweather.com
Personal Weather Stations
Station Observations
KNCGREEN1000
Bell Orchard Drive, Greensboro, NC 27455

Bell Orchard DriveGreensboro, NC 27455

Lat: 36.132, Lon: -79.8

Elevation: 876

Station Type: Acurite Atlas

Http://www.gilhutcheson.com

High Low Average
Temperature 42.5°F5.8°C 26.9°F-2.8°C 33.9°F1.1°C
Dew Point 26.3°F-3.2°C 22.1°F-5.5°C 23.8°F-4.6°C
Winds 8.0 mph 12.9 kmh Calm Calm 2.0 mph E3.2 kmh E
Wind Gusts -- -- --
Humidity 90% 48% 68%
Pressure 30.74 in1041.0 mb 30.51 in1033.2 mb -
Precipitation 0.00 in0.0 mm - -
Hour Temp Dew Point Humidity Winds Wind Gusts Pressure Precip Precip Rate Daily Precip Total
12:03 AM 29.0°F-1.7°C 24.4°F-4.2°C 83% 1.0 mph WNW1.6 kmh WNW -- 30.59 in1035.9 mb 0.00 in0.0 mm 0.00 in0.0 mm 0.00 in0.0 mm
12:08 AM 29.1°F-1.6°C 24.8°F-4.0°C 84% 2.0 mph E3.2 kmh E -- 30.59 in1035.9 mb 0.00 in0.0 mm 0.00 in0.0 mm 0.00 in0.0 mm
12:13 AM 29.2°F-1.6°C 24.8°F-4.0°C 84% Calm Calm -- 30.59 in1035.9 mb 0.00 in0.0 mm 0.00 in0.0 mm 0.00 in0.0 mm
12:18 AM 29.0°F-1.7°C 24.7°F-4.1°C 84% 1.0 mph NE1.6 kmh NE -- 30.59 in1035.9 mb 0.00 in0.0 mm 0.00 in0.0 mm 0.00 in0.0 mm
12:23 AM 28.8°F-1.8°C 24.5°F-4.2°C 84% 1.0 mph NW1.6 kmh NW -- 30.60 in1036.2 mb 0.00 in0.0 mm 0.00 in0.0 mm 0.00 in0.0 mm
12:28 AM 28.7°F-1.8°C 24.8°F-4.0°C 85% Calm Calm -- 30.59 in1035.9 mb 0.00 in0.0 mm 0.00 in0.0 mm 0.00 in0.0 mm
12:33 AM 28.7°F-1.8°C 24.8°F-4.0°C 85% Calm Calm -- 30.59 in1035.9 mb 0.00 in0.0 mm 0.00 in0.0 mm 0.00 in0.0 mm
12:38 AM 28.6°F-1.9°C 24.3°F-4.3°C 84% Calm Calm -- 30.59 in1035.9 mb 0.00 in0.0 mm 0.00 in0.0 mm 0.00 in0.0 mm
12:43 AM 28.6°F-1.9°C 24.6°F-4.1°C 85% Calm Calm -- 30.59 in1035.9 mb 0.00 in0.0 mm 0.00 in0.0 mm 0.00 in0.0 mm
12:48 AM 28.6°F-1.9°C 24.6°F-4.1°C 85% Calm Calm -- 30.59 in1035.9 mb 0.00 in0.0 mm 0.00 in0.0 mm 0.00 in0.0 mm
12:53 AM 28.8°F-1.8°C 24.8°F-4.0°C 85% Calm Calm -- 30.59 in1035.9 mb 0.00 in0.0 mm 0.00 in0.0 mm 0.00 in0.0 mm
12:58 AM 28.6°F-1.9°C 24.3°F-4.3°C 84% Calm Calm -- 30.59 in1035.9 mb 0.00 in0.0 mm 0.00 in0.0 mm 0.00 in0.0 mm
01:03 AM 28.5°F-1.9°C 24.3°F-4.3°C 84% Calm Calm -- 30.60 in1036.2 mb 0.00 in0.0 mm 0.00 in0.0 mm 0.00 in0.0 mm
01:08 AM 28.6°F-1.9°C 24.6°F-4.1°C 85% 1.0 mph ESE1.6 kmh ESE -- 30.60 in1036.2 mb 0.00 in0.0 mm 0.00 in0.0 mm 0.00 in0.0 mm
01:13 AM 28.6°F-1.9°C 24.3°F-4.3°C 84% Calm Calm -- 30.60 in1036.2 mb 0.00 in0.0 mm 0.00 in0.0 mm 0.00 in0.0 mm
01:18 AM 28.5°F-1.9°C 24.6°F-4.1°C 85% 1.0 mph E1.6 kmh E -- 30.61 in1036.6 mb 0.00 in0.0 mm 0.00 in0.0 mm 0.00 in0.0 mm
01:23 AM 28.4°F-2.0°C 24.4°F-4.2°C 85% 2.0 mph NE3.2 kmh NE -- 30.60 in1036.2 mb 0.00 in0.0 mm 0.00 in0.0 mm 0.00 in0.0 mm
01:28 AM 28.4°F-2.0°C 24.4°F-4.2°C 85% 1.0 mph E1.6 kmh E -- 30.60 in1036.2 mb 0.00 in0.0 mm 0.00 in0.0 mm 0.00 in0.0 mm
01:33 AM 28.2°F-2.1°C 24.5°F-4.2°C 86% 2.0 mph NNE3.2 kmh NNE -- 30.61 in1036.6 mb 0.00 in0.0 mm 0.00 in0.0 mm 0.00 in0.0 mm
01:38 AM 28.2°F-2.1°C 24.8°F-4.0°C 87% 2.0 mph E3.2 kmh E -- 30.60 in1036.2 mb 0.00 in0.0 mm 0.00 in0.0 mm 0.00 in0.0 mm
01:43 AM 28.2°F-2.1°C 24.8°F-4.0°C 87% 1.0 mph ESE1.6 kmh ESE -- 30.61 in1036.6 mb 0.00 in0.0 mm 0.00 in0.0 mm 0.00 in0.0 mm
01:48 AM 28.2°F-2.1°C 24.8°F-4.0°C 87% Calm Calm -- 30.61 in1036.6 mb 0.00 in0.0 mm 0.00 in0.0 mm 0.00 in0.0 mm
01:53 AM 28.2°F-2.1°C 24.8°F-4.0°C 87% Calm Calm -- 30.61 in1036.6 mb 0.00 in0.0 mm 0.00 in0.0 mm 0.00 in0.0 mm
01:58 AM 28.3°F-2.1°C 25.1°F-3.8°C 88% Calm Calm -- 30.61 in1036.6 mb 0.00 in0.0 mm 0.00 in0.0 mm 0.00 in0.0 mm
02:03 AM 28.1°F-2.2°C 24.6°F-4.1°C 87% Calm Calm -- 30.62 in1036.9 mb 0.00 in0.0 mm 0.00 in0.0 mm 0.00 in0.0 mm
02:08 AM 28.0°F-2.2°C 24.6°F-4.1°C 87% Calm Calm -- 30.62 in1036.9 mb 0.00 in0.0 mm 0.00 in0.0 mm 0.00 in0.0 mm
02:13 AM 27.9°F-2.3°C 24.7°F-4.1°C 88% 1.0 mph E1.6 kmh E -- 30.62 in1036.9 mb 0.00 in0.0 mm 0.00 in0.0 mm 0.00 in0.0 mm
02:18 AM 27.9°F-2.3°C 24.7°F-4.1°C 88% 2.0 mph NE3.2 kmh NE -- 30.62 in1036.9 mb 0.00 in0.0 mm 0.00 in0.0 mm 0.00 in0.0 mm
02:23 AM 27.8°F-2.3°C 24.7°F-4.1°C 88% 2.0 mph N3.2 kmh N -- 30.62 in1036.9 mb 0.00 in0.0 mm 0.00 in0.0 mm 0.00 in0.0 mm
02:28 AM 27.6°F-2.4°C 24.5°F-4.2°C 88% 1.0 mph E1.6 kmh E -- 30.62 in1036.9 mb 0.00 in0.0 mm 0.00 in0.0 mm 0.00 in0.0 mm
02:33 AM 27.4°F-2.6°C 24.2°F-4.3°C 88% 1.0 mph SW1.6 kmh SW -- 30.62 in1036.9 mb 0.00 in0.0 mm 0.00 in0.0 mm 0.00 in0.0 mm
02:38 AM 27.3°F-2.6°C 24.2°F-4.3°C 88% Calm Calm -- 30.63 in1037.3 mb 0.00 in0.0 mm 0.00 in0.0 mm 0.00 in0.0 mm
02:43 AM 27.3°F-2.6°C 24.2°F-4.3°C 88% Calm Calm -- 30.63 in1037.3 mb 0.00 in0.0 mm 0.00 in0.0 mm 0.00 in0.0 mm
02:48 AM 27.4°F-2.6°C 24.2°F-4.3°C 88% 2.0 mph NNW3.2 kmh NNW -- 30.63 in1037.3 mb 0.00 in0.0 mm 0.00 in0.0 mm 0.00 in0.0 mm
02:53 AM 27.5°F-2.5°C 24.4°F-4.2°C 88% 1.0 mph SE1.6 kmh SE -- 30.63 in1037.3 mb 0.00 in0.0 mm 0.00 in0.0 mm 0.00 in0.0 mm
02:58 AM 27.5°F-2.5°C 24.1°F-4.4°C 87% 1.0 mph E1.6 kmh E -- 30.64 in1037.6 mb 0.00 in0.0 mm 0.00 in0.0 mm 0.00 in0.0 mm
03:03 AM 27.5°F-2.5°C 24.4°F-4.2°C 88% 2.0 mph NE3.2 kmh NE -- 30.64 in1037.6 mb 0.00 in0.0 mm 0.00 in0.0 mm 0.00 in0.0 mm
03:08 AM 27.6°F-2.4°C 24.5°F-4.2°C 88% 2.0 mph ENE3.2 kmh ENE -- 30.64 in1037.6 mb 0.00 in0.0 mm 0.00 in0.0 mm 0.00 in0.0 mm
03:13 AM 27.8°F-2.3°C 24.7°F-4.1°C 88% 1.0 mph E1.6 kmh E -- 30.64 in1037.6 mb 0.00 in0.0 mm 0.00 in0.0 mm 0.00 in0.0 mm
03:18 AM 27.9°F-2.3°C 24.4°F-4.2°C 87% Calm Calm -- 30.64 in1037.6 mb 0.00 in0.0 mm 0.00 in0.0 mm 0.00 in0.0 mm
03:23 AM 27.8°F-2.3°C 24.4°F-4.2°C 87% 1.0 mph SE1.6 kmh SE -- 30.64 in1037.6 mb 0.00 in0.0 mm 0.00 in0.0 mm 0.00 in0.0 mm
03:28 AM 28.0°F-2.2°C 24.9°F-3.9°C 88% 2.0 mph N3.2 kmh N -- 30.64 in1037.6 mb 0.00 in0.0 mm 0.00 in0.0 mm 0.00 in0.0 mm
03:33 AM 27.9°F-2.3°C 24.4°F-4.2°C 87% 1.0 mph NE1.6 kmh NE -- 30.64 in1037.6 mb 0.00 in0.0 mm 0.00 in0.0 mm 0.00 in0.0 mm
03:38 AM 28.0°F-2.2°C 24.6°F-4.1°C 87% 1.0 mph SE1.6 kmh SE -- 30.65 in1037.9 mb 0.00 in0.0 mm 0.00 in0.0 mm 0.00 in0.0 mm
03:43 AM 28.0°F-2.2°C 24.6°F-4.1°C 87% 1.0 mph E1.6 kmh E -- 30.65 in1037.9 mb 0.00 in0.0 mm 0.00 in0.0 mm 0.00 in0.0 mm
03:48 AM 27.9°F-2.3°C 24.7°F-4.1°C 88% 1.0 mph NNE1.6 kmh NNE -- 30.65 in1037.9 mb 0.00 in0.0 mm 0.00 in0.0 mm 0.00 in0.0 mm
03:53 AM 27.7°F-2.4°C 24.5°F-4.2°C 88% Calm Calm -- 30.65 in1037.9 mb 0.00 in0.0 mm 0.00 in0.0 mm 0.00 in0.0 mm
03:58 AM 27.7°F-2.4°C 24.5°F-4.2°C 88% 1.0 mph SSE1.6 kmh SSE -- 30.65 in1037.9 mb 0.00 in0.0 mm 0.00 in0.0 mm 0.00 in0.0 mm
04:03 AM 27.7°F-2.4°C 24.5°F-4.2°C 88% 1.0 mph NE1.6 kmh NE -- 30.65 in1037.9 mb 0.00 in0.0 mm 0.00 in0.0 mm 0.00 in0.0 mm
04:08 AM 27.5°F-2.5°C 24.6°F-4.1°C 89% 1.0 mph ESE1.6 kmh ESE -- 30.65 in1037.9 mb 0.00 in0.0 mm 0.00 in0.0 mm 0.00 in0.0 mm
04:13 AM 27.4°F-2.6°C 24.5°F-4.2°C 89% 2.0 mph ENE3.2 kmh ENE -- 30.66 in1038.3 mb 0.00 in0.0 mm 0.00 in0.0 mm 0.00 in0.0 mm
04:18 AM 27.3°F-2.6°C 24.5°F-4.2°C 89% 1.0 mph SW1.6 kmh SW -- 30.65 in1037.9 mb 0.00 in0.0 mm 0.00 in0.0 mm 0.00 in0.0 mm
04:23 AM 27.3°F-2.6°C 24.7°F-4.1°C 90% 3.0 mph NNE4.8 kmh NNE -- 30.65 in1037.9 mb 0.00 in0.0 mm 0.00 in0.0 mm 0.00 in0.0 mm
04:28 AM 27.3°F-2.6°C 24.7°F-4.1°C 90% 3.0 mph N4.8 kmh N -- 30.65 in1037.9 mb 0.00 in0.0 mm 0.00 in0.0 mm 0.00 in0.0 mm
04:33 AM 27.4°F-2.6°C 24.5°F-4.2°C 89% 2.0 mph ENE3.2 kmh ENE -- 30.65 in1037.9 mb 0.00 in0.0 mm 0.00 in0.0 mm 0.00 in0.0 mm
04:38 AM 27.8°F-2.3°C 25.0°F-3.9°C 89% 1.0 mph ENE1.6 kmh ENE -- 30.65 in1037.9 mb 0.00 in0.0 mm 0.00 in0.0 mm 0.00 in0.0 mm
04:43 AM 27.8°F-2.3°C 24.7°F-4.1°C 88% Calm Calm -- 30.65 in1037.9 mb 0.00 in0.0 mm 0.00 in0.0 mm 0.00 in0.0 mm
04:48 AM 27.8°F-2.3°C 24.7°F-4.1°C 88% 2.0 mph NNE3.2 kmh NNE -- 30.65 in1037.9 mb 0.00 in0.0 mm 0.00 in0.0 mm 0.00 in0.0 mm
04:53 AM 27.8°F-2.3°C 24.4°F-4.2°C 87% Calm Calm -- 30.65 in1037.9 mb 0.00 in0.0 mm 0.00 in0.0 mm 0.00 in0.0 mm
04:58 AM 27.9°F-2.3°C 24.4°F-4.2°C 87% 2.0 mph NNW3.2 kmh NNW -- 30.66 in1038.3 mb 0.00 in0.0 mm 0.00 in0.0 mm 0.00 in0.0 mm
05:03 AM 27.7°F-2.4°C 24.3°F-4.3°C 87% Calm Calm -- 30.65 in1037.9 mb 0.00 in0.0 mm 0.00 in0.0 mm 0.00 in0.0 mm
05:08 AM 27.7°F-2.4°C 24.3°F-4.3°C 87% 1.0 mph NE1.6 kmh NE -- 30.66 in1038.3 mb 0.00 in0.0 mm 0.00 in0.0 mm 0.00 in0.0 mm
05:13 AM 27.5°F-2.5°C 24.1°F-4.4°C 87% Calm Calm -- 30.66 in1038.3 mb 0.00 in0.0 mm 0.00 in0.0 mm 0.00 in0.0 mm
05:18 AM 27.5°F-2.5°C 23.8°F-4.6°C 86% Calm Calm -- 30.66 in1038.3 mb 0.00 in0.0 mm 0.00 in0.0 mm 0.00 in0.0 mm
05:23 AM 27.4°F-2.6°C 23.6°F-4.7°C 86% 2.0 mph NNE3.2 kmh NNE -- 30.66 in1038.3 mb 0.00 in0.0 mm 0.00 in0.0 mm 0.00 in0.0 mm
05:28 AM 27.3°F-2.6°C 23.6°F-4.7°C 86% 2.0 mph NE3.2 kmh NE -- 30.66 in1038.3 mb 0.00 in0.0 mm 0.00 in0.0 mm 0.00 in0.0 mm
05:33 AM 27.2°F-2.7°C 23.7°F-4.6°C 87% 1.0 mph NNW1.6 kmh NNW -- 30.66 in1038.3 mb 0.00 in0.0 mm 0.00 in0.0 mm 0.00 in0.0 mm
05:38 AM 27.1°F-2.7°C 23.5°F-4.7°C 86% 2.0 mph NE3.2 kmh NE -- 30.66 in1038.3 mb 0.00 in0.0 mm 0.00 in0.0 mm 0.00 in0.0 mm
05:43 AM 26.9°F-2.8°C 23.3°F-4.8°C 86% 1.0 mph SE1.6 kmh SE -- 30.66 in1038.3 mb 0.00 in0.0 mm 0.00 in0.0 mm 0.00 in0.0 mm
05:48 AM 27.0°F-2.8°C 23.3°F-4.8°C 86% 1.0 mph ESE1.6 kmh ESE -- 30.66 in1038.3 mb 0.00 in0.0 mm 0.00 in0.0 mm 0.00 in0.0 mm
05:53 AM 27.3°F-2.6°C 23.6°F-4.7°C 86% 3.0 mph NNE4.8 kmh NNE -- 30.67 in1038.6 mb 0.00 in0.0 mm 0.00 in0.0 mm 0.00 in0.0 mm
05:58 AM 27.8°F-2.3°C 23.9°F-4.5°C 85% 2.0 mph SE3.2 kmh SE -- 30.66 in1038.3 mb 0.00 in0.0 mm 0.00 in0.0 mm 0.00 in0.0 mm
06:03 AM 27.8°F-2.3°C 23.9°F-4.5°C 85% 2.0 mph NNE3.2 kmh NNE -- 30.67 in1038.6 mb 0.00 in0.0 mm 0.00 in0.0 mm 0.00 in0.0 mm
06:08 AM 28.1°F-2.2°C 23.5°F-4.7°C 83% Calm Calm -- 30.66 in1038.3 mb 0.00 in0.0 mm 0.00 in0.0 mm 0.00 in0.0 mm
06:13 AM 28.0°F-2.2°C 23.8°F-4.6°C 84% 2.0 mph N3.2 kmh N -- 30.67 in1038.6 mb 0.00 in0.0 mm 0.00 in0.0 mm 0.00 in0.0 mm
06:18 AM 27.7°F-2.4°C 23.4°F-4.8°C 84% 1.0 mph ESE1.6 kmh ESE -- 30.67 in1038.6 mb 0.00 in0.0 mm 0.00 in0.0 mm 0.00 in0.0 mm
06:23 AM 27.6°F-2.4°C 23.7°F-4.6°C 85% 2.0 mph E3.2 kmh E -- 30.67 in1038.6 mb 0.00 in0.0 mm 0.00 in0.0 mm 0.00 in0.0 mm
06:28 AM 27.8°F-2.3°C 23.6°F-4.7°C 84% 2.0 mph NNE3.2 kmh NNE -- 30.67 in1038.6 mb 0.00 in0.0 mm 0.00 in0.0 mm 0.00 in0.0 mm
06:33 AM 28.1°F-2.2°C 23.5°F-4.7°C 83% 3.0 mph NE4.8 kmh NE -- 30.67 in1038.6 mb 0.00 in0.0 mm 0.00 in0.0 mm 0.00 in0.0 mm
06:38 AM 28.3°F-2.1°C 23.4°F-4.8°C 82% 4.0 mph ENE6.4 kmh ENE -- 30.67 in1038.6 mb 0.00 in0.0 mm 0.00 in0.0 mm 0.00 in0.0 mm
06:43 AM 28.9°F-1.7°C 23.5°F-4.7°C 80% 2.0 mph E3.2 kmh E -- 30.67 in1038.6 mb 0.00 in0.0 mm 0.00 in0.0 mm 0.00 in0.0 mm
06:48 AM 29.2°F-1.6°C 23.3°F-4.8°C 79% 2.0 mph NE3.2 kmh NE -- 30.68 in1038.9 mb 0.00 in0.0 mm 0.00 in0.0 mm 0.00 in0.0 mm
06:53 AM 29.4°F-1.4°C 23.4°F-4.8°C 78% 3.0 mph NE4.8 kmh NE -- 30.68 in1038.9 mb 0.00 in0.0 mm 0.00 in0.0 mm 0.00 in0.0 mm
06:58 AM 29.3°F-1.5°C 23.2°F-4.9°C 78% 1.0 mph NE1.6 kmh NE -- 30.68 in1038.9 mb 0.00 in0.0 mm 0.00 in0.0 mm 0.00 in0.0 mm
07:03 AM 29.3°F-1.5°C 23.2°F-4.9°C 78% 1.0 mph E1.6 kmh E -- 30.68 in1038.9 mb 0.00 in0.0 mm 0.00 in0.0 mm 0.00 in0.0 mm
07:08 AM 29.1°F-1.6°C 23.3°F-4.8°C 79% 3.0 mph E4.8 kmh E -- 30.69 in1039.3 mb 0.00 in0.0 mm 0.00 in0.0 mm 0.00 in0.0 mm
07:13 AM 28.8°F-1.8°C 23.0°F-5.0°C 79% 1.0 mph NE1.6 kmh NE -- 30.69 in1039.3 mb 0.00 in0.0 mm 0.00 in0.0 mm 0.00 in0.0 mm
07:18 AM 28.5°F-1.9°C 22.8°F-5.1°C 79% 2.0 mph NE3.2 kmh NE -- 30.69 in1039.3 mb 0.00 in0.0 mm 0.00 in0.0 mm 0.00 in0.0 mm
07:23 AM 28.4°F-2.0°C 22.6°F-5.2°C 79% Calm Calm -- 30.69 in1039.3 mb 0.00 in0.0 mm 0.00 in0.0 mm 0.00 in0.0 mm
07:28 AM 28.3°F-2.1°C 22.8°F-5.1°C 80% 2.0 mph ESE3.2 kmh ESE -- 30.69 in1039.3 mb 0.00 in0.0 mm 0.00 in0.0 mm 0.00 in0.0 mm
07:33 AM 28.1°F-2.2°C 22.6°F-5.2°C 80% 1.0 mph E1.6 kmh E -- 30.69 in1039.3 mb 0.00 in0.0 mm 0.00 in0.0 mm 0.00 in0.0 mm
07:38 AM 28.0°F-2.2°C 22.9°F-5.1°C 81% 2.0 mph SE3.2 kmh SE -- 30.70 in1039.6 mb 0.00 in0.0 mm 0.00 in0.0 mm 0.00 in0.0 mm
07:43 AM 27.9°F-2.3°C 22.7°F-5.2°C 81% 1.0 mph SE1.6 kmh SE -- 30.70 in1039.6 mb 0.00 in0.0 mm 0.00 in0.0 mm 0.00 in0.0 mm
07:48 AM 27.9°F-2.3°C 22.7°F-5.2°C 81% 2.0 mph E3.2 kmh E -- 30.71 in1040.0 mb 0.00 in0.0 mm 0.00 in0.0 mm 0.00 in0.0 mm
07:53 AM 28.0°F-2.2°C 22.6°F-5.2°C 80% 1.0 mph S1.6 kmh S -- 30.70 in1039.6 mb 0.00 in0.0 mm 0.00 in0.0 mm 0.00 in0.0 mm
07:58 AM 28.2°F-2.1°C 22.5°F-5.3°C 79% 2.0 mph ESE3.2 kmh ESE -- 30.71 in1040.0 mb 0.00 in0.0 mm 0.00 in0.0 mm 0.00 in0.0 mm
08:03 AM 28.4°F-2.0°C 22.3°F-5.4°C 78% 2.0 mph ESE3.2 kmh ESE -- 30.71 in1040.0 mb 0.00 in0.0 mm 0.00 in0.0 mm 0.00 in0.0 mm
08:08 AM 28.6°F-1.9°C 22.5°F-5.3°C 78% 3.0 mph ENE4.8 kmh ENE -- 30.71 in1040.0 mb 0.00 in0.0 mm 0.00 in0.0 mm 0.00 in0.0 mm
08:13 AM 29.1°F-1.6°C 22.4°F-5.3°C 76% 2.0 mph S3.2 kmh S -- 30.71 in1040.0 mb 0.00 in0.0 mm 0.00 in0.0 mm 0.00 in0.0 mm
08:18 AM 29.4°F-1.4°C 22.8°F-5.1°C 76% 5.0 mph SSE8.0 kmh SSE -- 30.71 in1040.0 mb 0.00 in0.0 mm 0.00 in0.0 mm 0.00 in0.0 mm
08:23 AM 29.8°F-1.2°C 22.5°F-5.3°C 74% 2.0 mph E3.2 kmh E -- 30.72 in1040.3 mb 0.00 in0.0 mm 0.00 in0.0 mm 0.00 in0.0 mm
08:28 AM 29.8°F-1.2°C 22.8°F-5.1°C 75% 2.0 mph NE3.2 kmh NE -- 30.71 in1040.0 mb 0.00 in0.0 mm 0.00 in0.0 mm 0.00 in0.0 mm
08:33 AM 30.1°F-1.1°C 22.3°F-5.4°C 73% 2.0 mph ENE3.2 kmh ENE -- 30.71 in1040.0 mb 0.00 in0.0 mm 0.00 in0.0 mm 0.00 in0.0 mm
08:38 AM 30.3°F-0.9°C 22.7°F-5.2°C 73% 6.0 mph ESE9.7 kmh ESE -- 30.71 in1040.0 mb 0.00 in0.0 mm 0.00 in0.0 mm 0.00 in0.0 mm
08:43 AM 30.3°F-0.9°C 22.7°F-5.2°C 73% 6.0 mph ESE9.7 kmh ESE -- 30.72 in1040.3 mb 0.00 in0.0 mm 0.00 in0.0 mm 0.00 in0.0 mm
08:48 AM 30.7°F-0.7°C 22.7°F-5.2°C 72% 2.0 mph ENE3.2 kmh ENE -- 30.72 in1040.3 mb 0.00 in0.0 mm 0.00 in0.0 mm 0.00 in0.0 mm
08:53 AM 31.0°F-0.6°C 22.5°F-5.3°C 71% 4.0 mph E6.4 kmh E -- 30.72 in1040.3 mb 0.00 in0.0 mm 0.00 in0.0 mm 0.00 in0.0 mm
08:58 AM 31.2°F-0.4°C 22.9°F-5.1°C 71% 3.0 mph NNE4.8 kmh NNE -- 30.72 in1040.3 mb 0.00 in0.0 mm 0.00 in0.0 mm 0.00 in0.0 mm
09:03 AM 31.4°F-0.3°C 23.0°F-5.0°C 71% 3.0 mph E4.8 kmh E -- 30.73 in1040.6 mb 0.00 in0.0 mm 0.00 in0.0 mm 0.00 in0.0 mm
09:08 AM 31.7°F-0.2°C 22.5°F-5.3°C 69% 3.0 mph ENE4.8 kmh ENE -- 30.73 in1040.6 mb 0.00 in0.0 mm 0.00 in0.0 mm 0.00 in0.0 mm
09:13 AM 31.8°F-0.1°C 22.7°F-5.2°C 69% 2.0 mph NE3.2 kmh NE -- 30.73 in1040.6 mb 0.00 in0.0 mm 0.00 in0.0 mm 0.00 in0.0 mm
09:18 AM 32.1°F0.1°C 23.0°F-5.0°C 69% 1.0 mph E1.6 kmh E -- 30.73 in1040.6 mb 0.00 in0.0 mm 0.00 in0.0 mm 0.00 in0.0 mm
09:23 AM 32.1°F0.1°C 23.0°F-5.0°C 69% 4.0 mph 6.4 kmh -- 30.73 in1040.6 mb 0.00 in0.0 mm 0.00 in0.0 mm 0.00 in0.0 mm
09:28 AM 32.2°F0.1°C 22.7°F-5.2°C 68% 5.0 mph ESE8.0 kmh ESE -- 30.73 in1040.6 mb 0.00 in0.0 mm 0.00 in0.0 mm 0.00 in0.0 mm
09:33 AM 32.7°F0.4°C 22.8°F-5.1°C 67% 2.0 mph ESE3.2 kmh ESE -- 30.73 in1040.6 mb 0.00 in0.0 mm 0.00 in0.0 mm 0.00 in0.0 mm
09:38 AM 33.3°F0.7°C 22.6°F-5.2°C 65% 3.0 mph NE4.8 kmh NE -- 30.73 in1040.6 mb 0.00 in0.0 mm 0.00 in0.0 mm 0.00 in0.0 mm
09:43 AM 33.8°F1.0°C 23.1°F-4.9°C 65% 4.0 mph ENE6.4 kmh ENE -- 30.73 in1040.6 mb 0.00 in0.0 mm 0.00 in0.0 mm 0.00 in0.0 mm
09:48 AM 33.6°F0.9°C 22.6°F-5.2°C 64% 3.0 mph ENE4.8 kmh ENE -- 30.73 in1040.6 mb 0.00 in0.0 mm 0.00 in0.0 mm 0.00 in0.0 mm
09:53 AM 33.9°F1.1°C 22.9°F-5.1°C 64% 4.0 mph SE6.4 kmh SE -- 30.74 in1041.0 mb 0.00 in0.0 mm 0.00 in0.0 mm 0.00 in0.0 mm
09:58 AM 34.2°F1.2°C 22.7°F-5.2°C 63% 3.0 mph SE4.8 kmh SE -- 30.74 in1041.0 mb 0.00 in0.0 mm 0.00 in0.0 mm 0.00 in0.0 mm
10:03 AM 34.4°F1.3°C 22.9°F-5.1°C 63% 4.0 mph ESE6.4 kmh ESE -- 30.74 in1041.0 mb 0.00 in0.0 mm 0.00 in0.0 mm 0.00 in0.0 mm
10:08 AM 34.4°F1.3°C 23.3°F-4.8°C 64% 4.0 mph NE6.4 kmh NE -- 30.74 in1041.0 mb 0.00 in0.0 mm 0.00 in0.0 mm 0.00 in0.0 mm
10:13 AM 34.5°F1.4°C 23.1°F-4.9°C 63% 3.0 mph ENE4.8 kmh ENE -- 30.74 in1041.0 mb 0.00 in0.0 mm 0.00 in0.0 mm 0.00 in0.0 mm
10:18 AM 34.8°F1.6°C 23.4°F-4.8°C 63% 4.0 mph NE6.4 kmh NE -- 30.74 in1041.0 mb 0.00 in0.0 mm 0.00 in0.0 mm 0.00 in0.0 mm
10:23 AM 35.1°F1.7°C 24.0°F-4.4°C 64% 1.0 mph SSE1.6 kmh SSE -- 30.74 in1041.0 mb 0.00 in0.0 mm 0.00 in0.0 mm 0.00 in0.0 mm
10:28 AM 35.8°F2.1°C 23.9°F-4.5°C 62% 2.0 mph SE3.2 kmh SE -- 30.74 in1041.0 mb 0.00 in0.0 mm 0.00 in0.0 mm 0.00 in0.0 mm
10:33 AM 35.8°F2.1°C 23.5°F-4.7°C 61% 3.0 mph SE4.8 kmh SE -- 30.74 in1041.0 mb 0.00 in0.0 mm 0.00 in0.0 mm 0.00 in0.0 mm
10:38 AM 36.0°F2.2°C 23.7°F-4.6°C 61% 3.0 mph E4.8 kmh E -- 30.74 in1041.0 mb 0.00 in0.0 mm 0.00 in0.0 mm 0.00 in0.0 mm
10:43 AM 36.4°F2.4°C 23.6°F-4.7°C 60% 4.0 mph ESE6.4 kmh ESE -- 30.74 in1041.0 mb 0.00 in0.0 mm 0.00 in0.0 mm 0.00 in0.0 mm
10:48 AM 36.4°F2.4°C 23.2°F-4.9°C 59% 8.0 mph E12.9 kmh E -- 30.74 in1041.0 mb 0.00 in0.0 mm 0.00 in0.0 mm 0.00 in0.0 mm
10:53 AM 36.2°F2.3°C 23.0°F-5.0°C 59% 4.0 mph ESE6.4 kmh ESE -- 30.74 in1041.0 mb 0.00 in0.0 mm 0.00 in0.0 mm 0.00 in0.0 mm
10:58 AM 36.5°F2.5°C 23.8°F-4.6°C 60% 6.0 mph ESE9.7 kmh ESE -- 30.73 in1040.6 mb 0.00 in0.0 mm 0.00 in0.0 mm 0.00 in0.0 mm
11:03 AM 36.2°F2.3°C 23.0°F-5.0°C 59% 4.0 mph NE6.4 kmh NE -- 30.73 in1040.6 mb 0.00 in0.0 mm 0.00 in0.0 mm 0.00 in0.0 mm
11:08 AM 37.5°F3.1°C 24.0°F-4.4°C 58% 2.0 mph SE3.2 kmh SE -- 30.73 in1040.6 mb 0.00 in0.0 mm 0.00 in0.0 mm 0.00 in0.0 mm
11:13 AM 38.0°F3.3°C 24.3°F-4.3°C 58% 6.0 mph NE9.7 kmh NE -- 30.73 in1040.6 mb 0.00 in0.0 mm 0.00 in0.0 mm 0.00 in0.0 mm
11:18 AM 37.4°F3.0°C 23.4°F-4.8°C 57% 2.0 mph S3.2 kmh S -- 30.73 in1040.6 mb 0.00 in0.0 mm 0.00 in0.0 mm 0.00 in0.0 mm
11:23 AM 37.8°F3.2°C 24.1°F-4.4°C 58% 3.0 mph SSE4.8 kmh SSE -- 30.73 in1040.6 mb 0.00 in0.0 mm 0.00 in0.0 mm 0.00 in0.0 mm
11:28 AM 38.0°F3.3°C 23.5°F-4.7°C 56% 4.0 mph SE6.4 kmh SE -- 30.72 in1040.3 mb 0.00 in0.0 mm 0.00 in0.0 mm 0.00 in0.0 mm
11:33 AM 38.3°F3.5°C 23.4°F-4.8°C 55% 1.0 mph S1.6 kmh S -- 30.72 in1040.3 mb 0.00 in0.0 mm 0.00 in0.0 mm 0.00 in0.0 mm
11:38 AM 38.7°F3.7°C 24.1°F-4.4°C 56% 4.0 mph N6.4 kmh N -- 30.72 in1040.3 mb 0.00 in0.0 mm 0.00 in0.0 mm 0.00 in0.0 mm
11:43 AM 38.7°F3.7°C 23.7°F-4.6°C 55% 5.0 mph E8.0 kmh E -- 30.71 in1040.0 mb 0.00 in0.0 mm 0.00 in0.0 mm 0.00 in0.0 mm
11:48 AM 38.9°F3.8°C 23.4°F-4.8°C 54% 5.0 mph ESE8.0 kmh ESE -- 30.71 in1040.0 mb 0.00 in0.0 mm 0.00 in0.0 mm 0.00 in0.0 mm
11:53 AM 39.0°F3.9°C 24.5°F-4.2°C 56% 3.0 mph NE4.8 kmh NE -- 30.71 in1040.0 mb 0.00 in0.0 mm 0.00 in0.0 mm 0.00 in0.0 mm
11:58 AM 39.1°F3.9°C 23.6°F-4.7°C 54% 4.0 mph NE6.4 kmh NE -- 30.71 in1040.0 mb 0.00 in0.0 mm 0.00 in0.0 mm 0.00 in0.0 mm
12:03 PM 40.2°F4.6°C 24.8°F-4.0°C 54% 3.0 mph ESE4.8 kmh ESE -- 30.70 in1039.6 mb 0.00 in0.0 mm 0.00 in0.0 mm 0.00 in0.0 mm
12:08 PM 40.1°F4.5°C 25.1°F-3.8°C 55% 3.0 mph N4.8 kmh N -- 30.70 in1039.6 mb 0.00 in0.0 mm 0.00 in0.0 mm 0.00 in0.0 mm
12:13 PM 40.4°F4.7°C 23.6°F-4.7°C 51% 4.0 mph E6.4 kmh E -- 30.70 in1039.6 mb 0.00 in0.0 mm 0.00 in0.0 mm 0.00 in0.0 mm
12:18 PM 39.6°F4.2°C 24.1°F-4.4°C 54% 2.0 mph E3.2 kmh E -- 30.70 in1039.6 mb 0.00 in0.0 mm 0.00 in0.0 mm 0.00 in0.0 mm
12:23 PM 39.5°F4.2°C 24.1°F-4.4°C 54% 3.0 mph NE4.8 kmh NE -- 30.69 in1039.3 mb 0.00 in0.0 mm 0.00 in0.0 mm 0.00 in0.0 mm
12:28 PM 40.8°F4.9°C 23.9°F-4.5°C 51% 7.0 mph ESE11.3 kmh ESE -- 30.69 in1039.3 mb 0.00 in0.0 mm 0.00 in0.0 mm 0.00 in0.0 mm
12:33 PM 41.2°F5.1°C 24.2°F-4.3°C 51% 2.0 mph SSW3.2 kmh SSW -- 30.69 in1039.3 mb 0.00 in0.0 mm 0.00 in0.0 mm 0.00 in0.0 mm
12:38 PM 41.9°F5.5°C 24.4°F-4.2°C 50% 1.0 mph SSE1.6 kmh SSE -- 30.69 in1039.3 mb 0.00 in0.0 mm 0.00 in0.0 mm 0.00 in0.0 mm
12:43 PM 40.5°F4.7°C 23.6°F-4.7°C 51% 4.0 mph ENE6.4 kmh ENE -- 30.68 in1038.9 mb 0.00 in0.0 mm 0.00 in0.0 mm 0.00 in0.0 mm
12:48 PM 41.4°F5.2°C 24.4°F-4.2°C 51% 3.0 mph SE4.8 kmh SE -- 30.68 in1038.9 mb 0.00 in0.0 mm 0.00 in0.0 mm 0.00 in0.0 mm
12:53 PM 41.9°F5.5°C 24.9°F-3.9°C 51% 4.0 mph E6.4 kmh E -- 30.68 in1038.9 mb 0.00 in0.0 mm 0.00 in0.0 mm 0.00 in0.0 mm
12:58 PM 41.0°F5.0°C 24.1°F-4.4°C 51% 6.0 mph E9.7 kmh E -- 30.67 in1038.6 mb 0.00 in0.0 mm 0.00 in0.0 mm 0.00 in0.0 mm
01:03 PM 41.4°F5.2°C 24.9°F-3.9°C 52% 3.0 mph ENE4.8 kmh ENE -- 30.67 in1038.6 mb 0.00 in0.0 mm 0.00 in0.0 mm 0.00 in0.0 mm
01:08 PM 41.3°F5.2°C 23.9°F-4.5°C 50% 5.0 mph E8.0 kmh E -- 30.67 in1038.6 mb 0.00 in0.0 mm 0.00 in0.0 mm 0.00 in0.0 mm
01:13 PM 41.5°F5.3°C 24.6°F-4.1°C 51% 2.0 mph E3.2 kmh E -- 30.67 in1038.6 mb 0.00 in0.0 mm 0.00 in0.0 mm 0.00 in0.0 mm
01:18 PM 41.2°F5.1°C 23.3°F-4.8°C 49% 7.0 mph E11.3 kmh E -- 30.66 in1038.3 mb 0.00 in0.0 mm 0.00 in0.0 mm 0.00 in0.0 mm
01:23 PM 42.2°F5.7°C 24.8°F-4.0°C 50% 3.0 mph S4.8 kmh S -- 30.66 in1038.3 mb 0.00 in0.0 mm 0.00 in0.0 mm 0.00 in0.0 mm
01:28 PM 42.4°F5.8°C 24.4°F-4.2°C 49% 4.0 mph SE6.4 kmh SE -- 30.66 in1038.3 mb 0.00 in0.0 mm 0.00 in0.0 mm 0.00 in0.0 mm
01:33 PM 42.2°F5.7°C 24.3°F-4.3°C 49% 4.0 mph SSE6.4 kmh SSE -- 30.66 in1038.3 mb 0.00 in0.0 mm 0.00 in0.0 mm 0.00 in0.0 mm
01:38 PM 42.4°F5.8°C 24.4°F-4.2°C 49% 4.0 mph E6.4 kmh E -- 30.65 in1037.9 mb 0.00 in0.0 mm 0.00 in0.0 mm 0.00 in0.0 mm
01:43 PM 42.1°F5.6°C 24.1°F-4.4°C 49% 6.0 mph E9.7 kmh E -- 30.65 in1037.9 mb 0.00 in0.0 mm 0.00 in0.0 mm 0.00 in0.0 mm
01:48 PM 41.8°F5.4°C 24.3°F-4.3°C 50% 4.0 mph NE6.4 kmh NE -- 30.65 in1037.9 mb 0.00 in0.0 mm 0.00 in0.0 mm 0.00 in0.0 mm
01:53 PM 41.7°F5.4°C 24.3°F-4.3°C 50% 2.0 mph E3.2 kmh E -- 30.65 in1037.9 mb 0.00 in0.0 mm 0.00 in0.0 mm 0.00 in0.0 mm
01:58 PM 41.6°F5.3°C 23.6°F-4.7°C 49% 2.0 mph NE3.2 kmh NE -- 30.65 in1037.9 mb 0.00 in0.0 mm 0.00 in0.0 mm 0.00 in0.0 mm
02:03 PM 41.8°F5.4°C 24.7°F-4.1°C 51% 1.0 mph E1.6 kmh E -- 30.64 in1037.6 mb 0.00 in0.0 mm 0.00 in0.0 mm 0.00 in0.0 mm
02:08 PM 42.1°F5.6°C 24.1°F-4.4°C 49% 7.0 mph ESE11.3 kmh ESE -- 30.65 in1037.9 mb 0.00 in0.0 mm 0.00 in0.0 mm 0.00 in0.0 mm
02:13 PM 42.3°F5.7°C 24.3°F-4.3°C 49% 4.0 mph SE6.4 kmh SE -- 30.64 in1037.6 mb 0.00 in0.0 mm 0.00 in0.0 mm 0.00 in0.0 mm
02:18 PM 42.5°F5.8°C 24.4°F-4.2°C 49% 3.0 mph ESE4.8 kmh ESE -- 30.64 in1037.6 mb 0.00 in0.0 mm 0.00 in0.0 mm 0.00 in0.0 mm
02:23 PM 42.1°F5.6°C 25.1°F-3.8°C 51% 4.0 mph E6.4 kmh E -- 30.64 in1037.6 mb 0.00 in0.0 mm 0.00 in0.0 mm 0.00 in0.0 mm
02:28 PM 42.5°F5.8°C 23.9°F-4.5°C 48% 4.0 mph ESE6.4 kmh ESE -- 30.64 in1037.6 mb 0.00 in0.0 mm 0.00 in0.0 mm 0.00 in0.0 mm
02:33 PM 42.3°F5.7°C 24.3°F-4.3°C 49% 5.0 mph NE8.0 kmh NE -- 30.64 in1037.6 mb 0.00 in0.0 mm 0.00 in0.0 mm 0.00 in0.0 mm
02:38 PM 42.1°F5.6°C 24.1°F-4.4°C 49% Calm Calm -- 30.63 in1037.3 mb 0.00 in0.0 mm 0.00 in0.0 mm 0.00 in0.0 mm
02:43 PM 42.1°F5.6°C 24.1°F-4.4°C 49% 5.0 mph NNE8.0 kmh NNE -- 30.63 in1037.3 mb 0.00 in0.0 mm 0.00 in0.0 mm 0.00 in0.0 mm
02:48 PM 42.1°F5.6°C 24.6°F-4.1°C 50% 3.0 mph ENE4.8 kmh ENE -- 30.63 in1037.3 mb 0.00 in0.0 mm 0.00 in0.0 mm 0.00 in0.0 mm
02:53 PM 42.3°F5.7°C 24.8°F-4.0°C 50% 2.0 mph E3.2 kmh E -- 30.63 in1037.3 mb 0.00 in0.0 mm 0.00 in0.0 mm 0.00 in0.0 mm
02:58 PM 42.2°F5.7°C 24.3°F-4.3°C 49% 4.0 mph SSE6.4 kmh SSE -- 30.63 in1037.3 mb 0.00 in0.0 mm 0.00 in0.0 mm 0.00 in0.0 mm
03:03 PM 42.0°F5.6°C 24.1°F-4.4°C 49% 2.0 mph E3.2 kmh E -- 30.62 in1036.9 mb 0.00 in0.0 mm 0.00 in0.0 mm 0.00 in0.0 mm
03:08 PM 42.0°F5.6°C 24.1°F-4.4°C 49% 3.0 mph NE4.8 kmh NE -- 30.62 in1036.9 mb 0.00 in0.0 mm 0.00 in0.0 mm 0.00 in0.0 mm
03:13 PM 41.9°F5.5°C 23.9°F-4.5°C 49% 3.0 mph ENE4.8 kmh ENE -- 30.62 in1036.9 mb 0.00 in0.0 mm 0.00 in0.0 mm 0.00 in0.0 mm
03:18 PM 41.9°F5.5°C 23.9°F-4.5°C 49% 5.0 mph ESE8.0 kmh ESE -- 30.62 in1036.9 mb 0.00 in0.0 mm 0.00 in0.0 mm 0.00 in0.0 mm
03:23 PM 41.9°F5.5°C 23.9°F-4.5°C 49% 1.0 mph SE1.6 kmh SE -- 30.62 in1036.9 mb 0.00 in0.0 mm 0.00 in0.0 mm 0.00 in0.0 mm
03:28 PM 41.9°F5.5°C 24.4°F-4.2°C 50% 3.0 mph NE4.8 kmh NE -- 30.61 in1036.6 mb 0.00 in0.0 mm 0.00 in0.0 mm 0.00 in0.0 mm
03:33 PM 41.7°F5.4°C 23.3°F-4.8°C 48% 7.0 mph NE11.3 kmh NE -- 30.62 in1036.9 mb 0.00 in0.0 mm 0.00 in0.0 mm 0.00 in0.0 mm
03:38 PM 41.5°F5.3°C 23.6°F-4.7°C 49% 3.0 mph ESE4.8 kmh ESE -- 30.62 in1036.9 mb 0.00 in0.0 mm 0.00 in0.0 mm 0.00 in0.0 mm
03:43 PM 41.6°F5.3°C 23.6°F-4.7°C 49% 1.0 mph SE1.6 kmh SE -- 30.61 in1036.6 mb 0.00 in0.0 mm 0.00 in0.0 mm 0.00 in0.0 mm
03:48 PM 41.6°F5.3°C 24.1°F-4.4°C 50% 2.0 mph SE3.2 kmh SE -- 30.61 in1036.6 mb 0.00 in0.0 mm 0.00 in0.0 mm 0.00 in0.0 mm
03:53 PM 41.6°F5.3°C 23.6°F-4.7°C 49% 3.0 mph NE4.8 kmh NE -- 30.62 in1036.9 mb 0.00 in0.0 mm 0.00 in0.0 mm 0.00 in0.0 mm
03:58 PM 41.3°F5.2°C 23.4°F-4.8°C 49% 5.0 mph E8.0 kmh E -- 30.62 in1036.9 mb 0.00 in0.0 mm 0.00 in0.0 mm 0.00 in0.0 mm
04:03 PM 41.2°F5.1°C 23.8°F-4.6°C 50% 4.0 mph E6.4 kmh E -- 30.62 in1036.9 mb 0.00 in0.0 mm 0.00 in0.0 mm 0.00 in0.0 mm
04:08 PM 41.0°F5.0°C 23.6°F-4.7°C 50% 2.0 mph E3.2 kmh E -- 30.61 in1036.6 mb 0.00 in0.0 mm 0.00 in0.0 mm 0.00 in0.0 mm
04:13 PM 40.9°F4.9°C 23.4°F-4.8°C 50% 7.0 mph ESE11.3 kmh ESE -- 30.61 in1036.6 mb 0.00 in0.0 mm 0.00 in0.0 mm 0.00 in0.0 mm
04:18 PM 40.8°F4.9°C 23.4°F-4.8°C 50% 6.0 mph E9.7 kmh E -- 30.61 in1036.6 mb 0.00 in0.0 mm 0.00 in0.0 mm 0.00 in0.0 mm
04:23 PM 40.6°F4.8°C 23.3°F-4.8°C 50% 2.0 mph E3.2 kmh E -- 30.61 in1036.6 mb 0.00 in0.0 mm 0.00 in0.0 mm 0.00 in0.0 mm
04:28 PM 40.5°F4.7°C 23.6°F-4.7°C 51% 2.0 mph ESE3.2 kmh ESE -- 30.61 in1036.6 mb 0.00 in0.0 mm 0.00 in0.0 mm 0.00 in0.0 mm
04:33 PM 40.2°F4.6°C 23.9°F-4.5°C 52% 4.0 mph ESE6.4 kmh ESE -- 30.61 in1036.6 mb 0.00 in0.0 mm 0.00 in0.0 mm 0.00 in0.0 mm
04:38 PM 40.1°F4.5°C 23.7°F-4.6°C 52% 4.0 mph E6.4 kmh E -- 30.60 in1036.2 mb 0.00 in0.0 mm 0.00 in0.0 mm 0.00 in0.0 mm
04:43 PM 39.9°F4.4°C 23.5°F-4.7°C 52% 1.0 mph SE1.6 kmh SE -- 30.61 in1036.6 mb 0.00 in0.0 mm 0.00 in0.0 mm 0.00 in0.0 mm
04:48 PM 39.7°F4.3°C 23.8°F-4.6°C 53% 4.0 mph SE6.4 kmh SE -- 30.60 in1036.2 mb 0.00 in0.0 mm 0.00 in0.0 mm 0.00 in0.0 mm
04:53 PM 39.5°F4.2°C 23.7°F-4.6°C 53% 5.0 mph E8.0 kmh E -- 30.60 in1036.2 mb 0.00 in0.0 mm 0.00 in0.0 mm 0.00 in0.0 mm
04:58 PM 39.3°F4.1°C 23.5°F-4.7°C 53% 2.0 mph ESE3.2 kmh ESE -- 30.60 in1036.2 mb 0.00 in0.0 mm 0.00 in0.0 mm 0.00 in0.0 mm
05:03 PM 39.1°F3.9°C 23.2°F-4.9°C 53% 1.0 mph E1.6 kmh E -- 30.60 in1036.2 mb 0.00 in0.0 mm 0.00 in0.0 mm 0.00 in0.0 mm
05:08 PM 38.8°F3.8°C 23.9°F-4.5°C 55% 1.0 mph NE1.6 kmh NE -- 30.60 in1036.2 mb 0.00 in0.0 mm 0.00 in0.0 mm 0.00 in0.0 mm
05:13 PM 38.5°F3.6°C 23.5°F-4.7°C 55% 2.0 mph E3.2 kmh E -- 30.60 in1036.2 mb 0.00 in0.0 mm 0.00 in0.0 mm 0.00 in0.0 mm
05:18 PM 38.4°F3.6°C 23.5°F-4.7°C 55% 2.0 mph NE3.2 kmh NE -- 30.60 in1036.2 mb 0.00 in0.0 mm 0.00 in0.0 mm 0.00 in0.0 mm
05:23 PM 38.3°F3.5°C 23.4°F-4.8°C 55% 3.0 mph ESE4.8 kmh ESE -- 30.60 in1036.2 mb 0.00 in0.0 mm 0.00 in0.0 mm 0.00 in0.0 mm
05:28 PM 38.2°F3.4°C 23.2°F-4.9°C 55% 2.0 mph E3.2 kmh E -- 30.60 in1036.2 mb 0.00 in0.0 mm 0.00 in0.0 mm 0.00 in0.0 mm
05:33 PM 37.9°F3.3°C 23.0°F-5.0°C 55% 2.0 mph ENE3.2 kmh ENE -- 30.60 in1036.2 mb 0.00 in0.0 mm 0.00 in0.0 mm 0.00 in0.0 mm
05:38 PM 37.6°F3.1°C 22.7°F-5.2°C 55% Calm Calm -- 30.59 in1035.9 mb 0.00 in0.0 mm 0.00 in0.0 mm 0.00 in0.0 mm
05:43 PM 37.4°F3.0°C 23.0°F-5.0°C 56% 1.0 mph ESE1.6 kmh ESE -- 30.60 in1036.2 mb 0.00 in0.0 mm 0.00 in0.0 mm 0.00 in0.0 mm
05:48 PM 37.2°F2.9°C 22.8°F-5.1°C 56% Calm Calm -- 30.60 in1036.2 mb 0.00 in0.0 mm 0.00 in0.0 mm 0.00 in0.0 mm
05:53 PM 37.0°F2.8°C 23.1°F-4.9°C 57% 1.0 mph ESE1.6 kmh ESE -- 30.60 in1036.2 mb 0.00 in0.0 mm 0.00 in0.0 mm 0.00 in0.0 mm
05:58 PM 36.8°F2.7°C 22.9°F-5.1°C 57% 1.0 mph SE1.6 kmh SE -- 30.60 in1036.2 mb 0.00 in0.0 mm 0.00 in0.0 mm 0.00 in0.0 mm
06:03 PM 36.5°F2.5°C 23.0°F-5.0°C 58% 1.0 mph SE1.6 kmh SE -- 30.60 in1036.2 mb 0.00 in0.0 mm 0.00 in0.0 mm 0.00 in0.0 mm
06:08 PM 36.5°F2.5°C 23.0°F-5.0°C 58% 2.0 mph ENE3.2 kmh ENE -- 30.60 in1036.2 mb 0.00 in0.0 mm 0.00 in0.0 mm 0.00 in0.0 mm
06:15 PM 36.5°F2.5°C 23.0°F-5.0°C 58% 2.0 mph E3.2 kmh E -- 30.60 in1036.2 mb 0.00 in0.0 mm 0.00 in0.0 mm 0.00 in0.0 mm
06:18 PM 36.1°F2.3°C 22.6°F-5.2°C 58% 1.0 mph NE1.6 kmh NE -- 30.60 in1036.2 mb 0.00 in0.0 mm 0.00 in0.0 mm 0.00 in0.0 mm
06:23 PM 36.1°F2.3°C 22.6°F-5.2°C 58% 2.0 mph ENE3.2 kmh ENE -- 30.60 in1036.2 mb 0.00 in0.0 mm 0.00 in0.0 mm 0.00 in0.0 mm
06:28 PM 36.0°F2.2°C 22.9°F-5.1°C 59% 2.0 mph ENE3.2 kmh ENE -- 30.60 in1036.2 mb 0.00 in0.0 mm 0.00 in0.0 mm 0.00 in0.0 mm
06:33 PM 35.8°F2.1°C 22.7°F-5.2°C 59% 1.0 mph ESE1.6 kmh ESE -- 30.60 in1036.2 mb 0.00 in0.0 mm 0.00 in0.0 mm 0.00 in0.0 mm
06:38 PM 35.7°F2.1°C 22.7°F-5.2°C 59% 2.0 mph E3.2 kmh E -- 30.60 in1036.2 mb 0.00 in0.0 mm 0.00 in0.0 mm 0.00 in0.0 mm
06:43 PM 35.7°F2.1°C 22.7°F-5.2°C 59% 2.0 mph E3.2 kmh E -- 30.60 in1036.2 mb 0.00 in0.0 mm 0.00 in0.0 mm 0.00 in0.0 mm
06:48 PM 35.7°F2.1°C 22.7°F-5.2°C 59% 3.0 mph NE4.8 kmh NE -- 30.60 in1036.2 mb 0.00 in0.0 mm 0.00 in0.0 mm 0.00 in0.0 mm
06:53 PM 35.8°F2.1°C 22.7°F-5.2°C 59% 6.0 mph ESE9.7 kmh ESE -- 30.60 in1036.2 mb 0.00 in0.0 mm 0.00 in0.0 mm 0.00 in0.0 mm
06:58 PM 35.7°F2.1°C 23.1°F-4.9°C 60% 2.0 mph NE3.2 kmh NE -- 30.60 in1036.2 mb 0.00 in0.0 mm 0.00 in0.0 mm 0.00 in0.0 mm
07:03 PM 35.6°F2.0°C 22.5°F-5.3°C 59% 1.0 mph SE1.6 kmh SE -- 30.59 in1035.9 mb 0.00 in0.0 mm 0.00 in0.0 mm 0.00 in0.0 mm
07:08 PM 35.4°F1.9°C 22.8°F-5.1°C 60% 3.0 mph E4.8 kmh E -- 30.59 in1035.9 mb 0.00 in0.0 mm 0.00 in0.0 mm 0.00 in0.0 mm
07:13 PM 35.2°F1.8°C 22.6°F-5.2°C 60% 2.0 mph NE3.2 kmh NE -- 30.59 in1035.9 mb 0.00 in0.0 mm 0.00 in0.0 mm 0.00 in0.0 mm
07:18 PM 35.1°F1.7°C 22.8°F-5.1°C 61% 3.0 mph NE4.8 kmh NE -- 30.59 in1035.9 mb 0.00 in0.0 mm 0.00 in0.0 mm 0.00 in0.0 mm
07:23 PM 35.1°F1.7°C 22.8°F-5.1°C 61% 2.0 mph ENE3.2 kmh ENE -- 30.59 in1035.9 mb 0.00 in0.0 mm 0.00 in0.0 mm 0.00 in0.0 mm
07:28 PM 34.8°F1.6°C 22.6°F-5.2°C 61% 4.0 mph E6.4 kmh E -- 30.59 in1035.9 mb 0.00 in0.0 mm 0.00 in0.0 mm 0.00 in0.0 mm
07:33 PM 34.7°F1.5°C 22.5°F-5.3°C 61% 3.0 mph ENE4.8 kmh ENE -- 30.59 in1035.9 mb 0.00 in0.0 mm 0.00 in0.0 mm 0.00 in0.0 mm
07:38 PM 34.7°F1.5°C 22.5°F-5.3°C 61% 3.0 mph E4.8 kmh E -- 30.59 in1035.9 mb 0.00 in0.0 mm 0.00 in0.0 mm 0.00 in0.0 mm
07:43 PM 34.6°F1.4°C 22.7°F-5.2°C 62% 2.0 mph E3.2 kmh E -- 30.58 in1035.6 mb 0.00 in0.0 mm 0.00 in0.0 mm 0.00 in0.0 mm
07:48 PM 34.5°F1.4°C 22.7°F-5.2°C 62% 1.0 mph ENE1.6 kmh ENE -- 30.59 in1035.9 mb 0.00 in0.0 mm 0.00 in0.0 mm 0.00 in0.0 mm
07:53 PM 34.3°F1.3°C 22.5°F-5.3°C 62% 2.0 mph ENE3.2 kmh ENE -- 30.59 in1035.9 mb 0.00 in0.0 mm 0.00 in0.0 mm 0.00 in0.0 mm
07:58 PM 34.1°F1.2°C 22.7°F-5.2°C 63% 2.0 mph SE3.2 kmh SE -- 30.59 in1035.9 mb 0.00 in0.0 mm 0.00 in0.0 mm 0.00 in0.0 mm
08:03 PM 34.0°F1.1°C 22.6°F-5.2°C 63% 3.0 mph SE4.8 kmh SE -- 30.59 in1035.9 mb 0.00 in0.0 mm 0.00 in0.0 mm 0.00 in0.0 mm
08:08 PM 34.0°F1.1°C 22.6°F-5.2°C 63% 2.0 mph E3.2 kmh E -- 30.59 in1035.9 mb 0.00 in0.0 mm 0.00 in0.0 mm 0.00 in0.0 mm
08:13 PM 33.8°F1.0°C 22.8°F-5.1°C 64% 1.0 mph ENE1.6 kmh ENE -- 30.58 in1035.6 mb 0.00 in0.0 mm 0.00 in0.0 mm 0.00 in0.0 mm
08:18 PM 33.6°F0.9°C 22.6°F-5.2°C 64% 2.0 mph E3.2 kmh E -- 30.58 in1035.6 mb 0.00 in0.0 mm 0.00 in0.0 mm 0.00 in0.0 mm
08:23 PM 33.6°F0.9°C 22.6°F-5.2°C 64% 3.0 mph E4.8 kmh E -- 30.58 in1035.6 mb 0.00 in0.0 mm 0.00 in0.0 mm 0.00 in0.0 mm
08:28 PM 33.8°F1.0°C 22.4°F-5.3°C 63% Calm Calm -- 30.58 in1035.6 mb 0.00 in0.0 mm 0.00 in0.0 mm 0.00 in0.0 mm
08:33 PM 33.6°F0.9°C 22.6°F-5.2°C 64% 2.0 mph NE3.2 kmh NE -- 30.58 in1035.6 mb 0.00 in0.0 mm 0.00 in0.0 mm 0.00 in0.0 mm
08:38 PM 33.4°F0.8°C 22.1°F-5.5°C 63% Calm Calm -- 30.58 in1035.6 mb 0.00 in0.0 mm 0.00 in0.0 mm 0.00 in0.0 mm
08:43 PM 33.3°F0.7°C 22.3°F-5.4°C 64% 3.0 mph E4.8 kmh E -- 30.58 in1035.6 mb 0.00 in0.0 mm 0.00 in0.0 mm 0.00 in0.0 mm
08:48 PM 33.2°F0.7°C 22.6°F-5.2°C 65% Calm Calm -- 30.58 in1035.6 mb 0.00 in0.0 mm 0.00 in0.0 mm 0.00 in0.0 mm
08:53 PM 33.1°F0.6°C 22.5°F-5.3°C 65% 1.0 mph E1.6 kmh E -- 30.59 in1035.9 mb 0.00 in0.0 mm 0.00 in0.0 mm 0.00 in0.0 mm
08:58 PM 33.0°F0.6°C 22.5°F-5.3°C 65% Calm Calm -- 30.59 in1035.9 mb 0.00 in0.0 mm 0.00 in0.0 mm 0.00 in0.0 mm
09:03 PM 33.2°F0.7°C 23.0°F-5.0°C 66% 3.0 mph ENE4.8 kmh ENE -- 30.58 in1035.6 mb 0.00 in0.0 mm 0.00 in0.0 mm 0.00 in0.0 mm
09:08 PM 33.6°F0.9°C 23.0°F-5.0°C 65% 2.0 mph E3.2 kmh E -- 30.58 in1035.6 mb 0.00 in0.0 mm 0.00 in0.0 mm 0.00 in0.0 mm
09:13 PM 33.8°F1.0°C 22.8°F-5.1°C 64% 2.0 mph NE3.2 kmh NE -- 30.57 in1035.2 mb 0.00 in0.0 mm 0.00 in0.0 mm 0.00 in0.0 mm
09:18 PM 33.9°F1.1°C 23.3°F-4.8°C 65% 1.0 mph E1.6 kmh E -- 30.57 in1035.2 mb 0.00 in0.0 mm 0.00 in0.0 mm 0.00 in0.0 mm
09:23 PM 34.0°F1.1°C 23.3°F-4.8°C 65% 2.0 mph ENE3.2 kmh ENE -- 30.57 in1035.2 mb 0.00 in0.0 mm 0.00 in0.0 mm 0.00 in0.0 mm
09:28 PM 34.1°F1.2°C 23.1°F-4.9°C 64% 2.0 mph E3.2 kmh E -- 30.56 in1034.9 mb 0.00 in0.0 mm 0.00 in0.0 mm 0.00 in0.0 mm
09:33 PM 34.3°F1.3°C 23.7°F-4.6°C 65% 3.0 mph E4.8 kmh E -- 30.56 in1034.9 mb 0.00 in0.0 mm 0.00 in0.0 mm 0.00 in0.0 mm
09:38 PM 34.6°F1.4°C 23.5°F-4.7°C 64% 2.0 mph NE3.2 kmh NE -- 30.56 in1034.9 mb 0.00 in0.0 mm 0.00 in0.0 mm 0.00 in0.0 mm
09:43 PM 34.7°F1.5°C 23.6°F-4.7°C 64% 1.0 mph NE1.6 kmh NE -- 30.56 in1034.9 mb 0.00 in0.0 mm 0.00 in0.0 mm 0.00 in0.0 mm
09:48 PM 34.9°F1.6°C 23.8°F-4.6°C 64% 4.0 mph E6.4 kmh E -- 30.56 in1034.9 mb 0.00 in0.0 mm 0.00 in0.0 mm 0.00 in0.0 mm
09:53 PM 35.1°F1.7°C 24.0°F-4.4°C 64% 2.0 mph NE3.2 kmh NE -- 30.56 in1034.9 mb 0.00 in0.0 mm 0.00 in0.0 mm 0.00 in0.0 mm
09:58 PM 35.2°F1.8°C 24.1°F-4.4°C 64% 4.0 mph N6.4 kmh N -- 30.56 in1034.9 mb 0.00 in0.0 mm 0.00 in0.0 mm 0.00 in0.0 mm
10:03 PM 35.4°F1.9°C 24.7°F-4.1°C 65% 2.0 mph ESE3.2 kmh ESE -- 30.56 in1034.9 mb 0.00 in0.0 mm 0.00 in0.0 mm 0.00 in0.0 mm
10:08 PM 35.3°F1.8°C 24.1°F-4.4°C 64% 1.0 mph ESE1.6 kmh ESE -- 30.56 in1034.9 mb 0.00 in0.0 mm 0.00 in0.0 mm 0.00 in0.0 mm
10:13 PM 35.3°F1.8°C 24.5°F-4.2°C 65% Calm Calm -- 30.56 in1034.9 mb 0.00 in0.0 mm 0.00 in0.0 mm 0.00 in0.0 mm
10:18 PM 35.3°F1.8°C 24.5°F-4.2°C 65% 4.0 mph E6.4 kmh E -- 30.56 in1034.9 mb 0.00 in0.0 mm 0.00 in0.0 mm 0.00 in0.0 mm
10:23 PM 35.3°F1.8°C 24.5°F-4.2°C 65% 1.0 mph SE1.6 kmh SE -- 30.56 in1034.9 mb 0.00 in0.0 mm 0.00 in0.0 mm 0.00 in0.0 mm
10:28 PM 35.3°F1.8°C 24.5°F-4.2°C 65% 3.0 mph ENE4.8 kmh ENE -- 30.56 in1034.9 mb 0.00 in0.0 mm 0.00 in0.0 mm 0.00 in0.0 mm
10:33 PM 35.4°F1.9°C 24.7°F-4.1°C 65% 1.0 mph E1.6 kmh E -- 30.56 in1034.9 mb 0.00 in0.0 mm 0.00 in0.0 mm 0.00 in0.0 mm
10:38 PM 35.5°F1.9°C 25.1°F-3.8°C 66% 2.0 mph E3.2 kmh E -- 30.55 in1034.5 mb 0.00 in0.0 mm 0.00 in0.0 mm 0.00 in0.0 mm
10:43 PM 35.5°F1.9°C 25.1°F-3.8°C 66% Calm Calm -- 30.55 in1034.5 mb 0.00 in0.0 mm 0.00 in0.0 mm 0.00 in0.0 mm
10:48 PM 35.4°F1.9°C 25.1°F-3.8°C 66% 2.0 mph NE3.2 kmh NE -- 30.55 in1034.5 mb 0.00 in0.0 mm 0.00 in0.0 mm 0.00 in0.0 mm
10:53 PM 35.4°F1.9°C 25.1°F-3.8°C 66% 2.0 mph NE3.2 kmh NE -- 30.55 in1034.5 mb 0.00 in0.0 mm 0.00 in0.0 mm 0.00 in0.0 mm
10:58 PM 35.5°F1.9°C 25.1°F-3.8°C 66% 1.0 mph S1.6 kmh S -- 30.55 in1034.5 mb 0.00 in0.0 mm 0.00 in0.0 mm 0.00 in0.0 mm
11:03 PM 35.4°F1.9°C 25.1°F-3.8°C 66% 2.0 mph SE3.2 kmh SE -- 30.55 in1034.5 mb 0.00 in0.0 mm 0.00 in0.0 mm 0.00 in0.0 mm
11:08 PM 35.4°F1.9°C 25.1°F-3.8°C 66% 2.0 mph ENE3.2 kmh ENE -- 30.54 in1034.2 mb 0.00 in0.0 mm 0.00 in0.0 mm 0.00 in0.0 mm
11:13 PM 35.5°F1.9°C 25.4°F-3.7°C 67% 2.0 mph SE3.2 kmh SE -- 30.54 in1034.2 mb 0.00 in0.0 mm 0.00 in0.0 mm 0.00 in0.0 mm
11:18 PM 35.5°F1.9°C 25.4°F-3.7°C 67% Calm Calm -- 30.54 in1034.2 mb 0.00 in0.0 mm 0.00 in0.0 mm 0.00 in0.0 mm
11:23 PM 35.5°F1.9°C 25.4°F-3.7°C 67% 1.0 mph SE1.6 kmh SE -- 30.54 in1034.2 mb 0.00 in0.0 mm 0.00 in0.0 mm 0.00 in0.0 mm
11:28 PM 35.5°F1.9°C 25.8°F-3.4°C 68% 2.0 mph ESE3.2 kmh ESE -- 30.54 in1034.2 mb 0.00 in0.0 mm 0.00 in0.0 mm 0.00 in0.0 mm
11:33 PM 35.6°F2.0°C 26.3°F-3.2°C 69% 1.0 mph E1.6 kmh E -- 30.53 in1033.9 mb 0.00 in0.0 mm 0.00 in0.0 mm 0.00 in0.0 mm
11:43 PM 35.6°F2.0°C 26.0°F-3.3°C 68% 2.0 mph NE3.2 kmh NE -- 30.54 in1034.2 mb 0.00 in0.0 mm 0.00 in0.0 mm 0.00 in0.0 mm
11:48 PM 35.5°F1.9°C 25.8°F-3.4°C 68% 2.0 mph E3.2 kmh E -- 30.52 in1033.5 mb 0.00 in0.0 mm 0.00 in0.0 mm 0.00 in0.0 mm
11:54 PM 35.5°F1.9°C 25.8°F-3.4°C 68% 2.0 mph NE3.2 kmh NE -- 30.52 in1033.5 mb 0.00 in0.0 mm 0.00 in0.0 mm 0.00 in0.0 mm
11:58 PM 35.5°F1.9°C 25.4°F-3.7°C 67% 1.0 mph ESE1.6 kmh ESE -- 30.51 in1033.2 mb 0.00 in0.0 mm 0.00 in0.0 mm 0.00 in0.0 mm